This is the latest recevied weather packets stored in our database for station/object F4AMY-13. If no packets are shown the sender has not sent any weather packets the latest 10 day(s).
| Time | Temp. | Humidity | Pressure | Rain* | Wind** | Luminosity | Snow |
|---|---|---|---|---|---|---|---|
| 1777877223 | 12.22° C | 92% | 1013.5 hPa | 0 mm | 27.27 m/s, ° | 61 W/m² | - |
| 1777876923 | 12.22° C | 92% | 1013.6 hPa | 0 mm | 14.75 m/s, ° | 33 W/m² | - |
| 1777876623 | 12.22° C | 92% | 1013.6 hPa | 45.72 mm | 15.2 m/s, ° | 34 W/m² | - |
| 1777876323 | 11.67° C | 92% | 1013.7 hPa | 45.72 mm | 14.31 m/s, ° | 32 W/m² | - |
| 1777876023 | 11.67° C | 92% | 1013.6 hPa | 45.72 mm | 12.96 m/s, ° | 29 W/m² | - |
| 1777875722 | 11.67° C | 92% | 1013.7 hPa | 0 mm | 12.96 m/s, ° | 29 W/m² | - |
| 1777875422 | 11.67° C | 92% | 1013.6 hPa | 0 mm | 12.52 m/s, ° | 28 W/m² | - |
| 1777875122 | 11.67° C | 92% | 1013.5 hPa | 0 mm | 7.6 m/s, ° | 17 W/m² | - |
| 1777874822 | 11.67° C | 92% | 1013.7 hPa | 0 mm | 2.68 m/s, ° | 6 W/m² | - |
| 1777874522 | 11.67° C | 92% | 1013.4 hPa | 0 mm | 0.45 m/s, ° | 1 W/m² | - |
| 1777874222 | 11.11° C | 92% | 1013.6 hPa | 0 mm | 0.45 m/s, ° | 1 W/m² | - |
| 1777873922 | 11.11° C | 92% | 1013.7 hPa | 0 mm | 0 m/s | 0 W/m² | - |
| 1777873622 | 11.11° C | 92% | 1013.6 hPa | 0 mm | 0 m/s | 0 W/m² | - |
| 1777873322 | 11.11° C | 92% | 1013.7 hPa | 0 mm | 0 m/s | 0 W/m² | - |
| 1777873022 | 11.11° C | 92% | 1013.5 hPa | 0 mm | 0 m/s | 0 W/m² | - |
| 1777872722 | 11.11° C | 92% | 1013.6 hPa | 0 mm | 0 m/s | 0 W/m² | - |
| 1777872422 | 11.11° C | 92% | 1013.6 hPa | 0 mm | 0 m/s | 0 W/m² | - |
| 1777872122 | 11.11° C | 92% | 1013.6 hPa | 0 mm | 0 m/s | 0 W/m² | - |
| 1777871822 | 11.11° C | 92% | 1013.3 hPa | 0 mm | 0 m/s | 0 W/m² | - |
| 1777871522 | 11.11° C | 91% | 1013.4 hPa | 0 mm | 0 m/s | 0 W/m² | - |
| 1777871222 | 11.11° C | 91% | 1013.7 hPa | 0 mm | 0 m/s | 0 W/m² | - |
| 1777870921 | 11.67° C | 91% | 1013.8 hPa | 0 mm | 0 m/s | 0 W/m² | - |
| 1777870621 | 11.67° C | 91% | 1013.5 hPa | 0 mm | 0 m/s | 0 W/m² | - |
| 1777870321 | 11.67° C | 91% | 1013.7 hPa | 0 mm | 0 m/s | 0 W/m² | - |
| 1777870021 | 11.67° C | 90% | 1013.7 hPa | 0 mm | 0 m/s | 0 W/m² | - |
* Rain latest hour (hover to see other rain measurements)
** Current wind speed in m/s (hover to see current wind gust speed)